createdAt,value
2019-03-03T00:02:36.943Z,99.90
2019-03-03T00:05:39.198Z,99.90
2019-03-03T00:08:41.719Z,99.90
2019-03-03T00:11:44.055Z,99.90
2019-03-03T00:14:46.307Z,99.90
2019-03-03T00:17:48.578Z,99.90
2019-03-03T00:20:50.857Z,99.90
2019-03-03T00:23:54.031Z,99.90
2019-03-03T00:26:56.318Z,99.90
2019-03-03T00:29:58.608Z,99.90
2019-03-03T00:33:00.893Z,99.90
2019-03-03T00:36:03.196Z,99.90
2019-03-03T00:39:10.987Z,99.90
2019-03-03T00:42:20.668Z,99.90
2019-03-03T00:45:29.996Z,99.90
2019-03-03T00:48:40.858Z,99.90
2019-03-03T00:51:49.646Z,99.90
2019-03-03T00:55:59.549Z,99.90
2019-03-03T00:59:08.047Z,99.90
2019-03-03T01:02:16.852Z,99.90
2019-03-03T01:05:31.492Z,99.90
2019-03-03T01:08:44.400Z,99.90
2019-03-03T01:11:56.189Z,99.90
2019-03-03T01:15:06.923Z,99.90
2019-03-03T01:18:13.759Z,99.90
2019-03-03T01:21:20.587Z,99.90
2019-03-03T01:24:42.356Z,99.90
2019-03-03T01:27:44.621Z,99.90
2019-03-03T01:30:46.883Z,99.90
2019-03-03T01:33:49.198Z,99.90
2019-03-03T01:36:51.483Z,99.90
2019-03-03T01:39:53.711Z,99.90
2019-03-03T01:42:55.951Z,99.90
2019-03-03T01:45:58.194Z,99.90
2019-03-03T01:49:00.498Z,99.90
2019-03-03T01:52:02.748Z,99.90
2019-03-03T01:55:05.488Z,99.90
2019-03-03T01:58:07.575Z,99.90
2019-03-03T02:01:09.899Z,99.90
2019-03-03T02:04:12.775Z,99.90
2019-03-03T02:07:15.143Z,99.90
2019-03-03T02:10:19.067Z,99.90
2019-03-03T02:13:21.393Z,99.90
2019-03-03T02:16:23.706Z,99.90
2019-03-03T02:19:26.004Z,99.90
2019-03-03T02:22:28.251Z,99.90
2019-03-03T02:25:30.512Z,99.90
2019-03-03T02:28:32.763Z,99.90
2019-03-03T02:31:35.404Z,99.90
2019-03-03T02:34:37.882Z,99.90
2019-03-03T02:37:40.177Z,99.90
2019-03-03T02:40:42.415Z,99.90
2019-03-03T02:43:45.150Z,99.90
2019-03-03T02:46:47.397Z,99.90
2019-03-03T02:49:49.657Z,99.90
2019-03-03T02:52:51.971Z,99.90
2019-03-03T02:55:54.255Z,99.90
2019-03-03T02:58:56.527Z,99.90
2019-03-03T03:02:01.506Z,99.90
2019-03-03T03:05:05.276Z,99.90
2019-03-03T03:08:10.969Z,99.90
2019-03-03T03:11:24.315Z,99.90
2019-03-03T03:14:36.988Z,99.90
2019-03-03T03:17:44.885Z,99.90
2019-03-03T03:20:59.308Z,99.90
2019-03-03T03:24:11.604Z,99.90
2019-03-03T03:27:20.292Z,99.90
2019-03-03T03:30:28.012Z,99.90
2019-03-03T03:33:35.809Z,99.90
2019-03-03T03:36:51.040Z,99.90
2019-03-03T03:40:14.859Z,99.90
2019-03-03T03:43:25.646Z,99.90
2019-03-03T03:46:33.296Z,99.90
2019-03-03T03:49:47.065Z,99.90
2019-03-03T03:52:55.641Z,99.90
2019-03-03T03:56:03.346Z,99.90
2019-03-03T04:01:13.237Z,99.90
2019-03-03T04:04:20.104Z,99.90
2019-03-03T04:07:26.938Z,99.90
2019-03-03T04:10:33.751Z,99.90
2019-03-03T04:13:40.782Z,99.90
2019-03-03T04:16:48.416Z,99.90
2019-03-03T04:19:55.248Z,99.90
2019-03-03T04:23:09.058Z,99.90
2019-03-03T04:26:49.755Z,99.90
2019-03-03T04:29:59.115Z,99.90
2019-03-03T04:33:09.317Z,99.90
2019-03-03T04:36:18.247Z,99.90
2019-03-03T04:39:29.275Z,99.90
2019-03-03T04:42:35.802Z,99.90
2019-03-03T04:45:43.639Z,99.90
2019-03-03T04:48:50.463Z,99.90
2019-03-03T04:51:59.106Z,99.90
2019-03-03T04:55:11.913Z,99.90
2019-03-03T04:58:19.999Z,99.90
2019-03-03T05:01:26.849Z,99.90
2019-03-03T05:04:34.523Z,99.90
2019-03-03T05:07:43.036Z,99.90
2019-03-03T05:10:50.974Z,99.90
2019-03-03T05:13:58.759Z,99.90
2019-03-03T05:17:08.716Z,99.90
2019-03-03T05:20:10.490Z,99.90
2019-03-03T05:23:13.139Z,99.90
2019-03-03T05:26:15.352Z,99.90
2019-03-03T05:29:17.607Z,99.90
2019-03-03T05:32:19.970Z,99.90
2019-03-03T05:35:22.211Z,99.90
2019-03-03T05:38:24.506Z,99.90
2019-03-03T05:41:26.748Z,99.90
2019-03-03T05:44:28.999Z,99.90
2019-03-03T05:47:31.858Z,99.90
2019-03-03T05:50:34.535Z,99.90
2019-03-03T05:53:36.772Z,99.90
2019-03-03T05:56:39.050Z,99.90
2019-03-03T05:59:41.705Z,99.90
2019-03-03T06:02:43.976Z,99.90
2019-03-03T06:05:47.478Z,99.90
2019-03-03T06:08:49.473Z,99.90
2019-03-03T06:11:51.682Z,99.90
2019-03-03T06:14:53.931Z,99.90
2019-03-03T06:17:56.207Z,99.90
2019-03-03T06:20:58.451Z,99.90
2019-03-03T06:24:00.680Z,99.90
2019-03-03T06:27:04.402Z,99.90
2019-03-03T06:30:08.039Z,99.90
2019-03-03T06:33:10.361Z,99.90
2019-03-03T06:36:13.239Z,99.90
2019-03-03T06:39:15.542Z,99.90
2019-03-03T06:42:17.772Z,99.90
2019-03-03T06:45:19.994Z,99.90
2019-03-03T06:48:22.231Z,99.90
2019-03-03T06:51:24.763Z,99.90
2019-03-03T06:54:27.079Z,99.90
2019-03-03T06:57:29.358Z,99.90
2019-03-03T07:00:31.616Z,99.90
2019-03-03T07:03:34.306Z,99.90
2019-03-03T07:06:36.645Z,99.90
2019-03-03T07:09:38.936Z,99.90
2019-03-03T07:12:41.227Z,99.60
2019-03-03T07:15:43.501Z,97.80
2019-03-03T07:18:45.703Z,98.20
2019-03-03T07:21:47.995Z,96.90
2019-03-03T07:24:52.163Z,95.10
2019-03-03T07:27:54.371Z,94.20
2019-03-03T07:30:56.615Z,94.20
2019-03-03T07:34:01.343Z,93.50
2019-03-03T07:37:03.631Z,91.90
2019-03-03T07:40:05.977Z,91.80
2019-03-03T07:43:08.240Z,91.60
2019-03-03T07:46:10.478Z,91.20
2019-03-03T07:49:12.750Z,90.40
2019-03-03T07:52:15.590Z,89.70
2019-03-03T07:55:18.954Z,89.00
2019-03-03T07:58:21.192Z,88.60
2019-03-03T08:01:24.328Z,89.70
2019-03-03T08:04:26.635Z,90.30
2019-03-03T08:07:29.695Z,88.10
2019-03-03T08:10:31.930Z,87.10
2019-03-03T08:13:34.378Z,87.80
2019-03-03T08:16:36.675Z,86.30
2019-03-03T08:19:39.558Z,85.20
2019-03-03T08:22:41.861Z,82.50
2019-03-03T08:25:44.132Z,83.10
2019-03-03T08:28:47.664Z,82.30
2019-03-03T08:31:49.911Z,81.40
2019-03-03T08:34:52.784Z,79.80
2019-03-03T08:37:55.859Z,80.10
2019-03-03T08:40:58.331Z,80.70
2019-03-03T08:44:11.981Z,79.40
2019-03-03T08:47:19.759Z,78.90
2019-03-03T08:50:32.764Z,78.70
2019-03-03T08:53:40.666Z,77.80
2019-03-03T08:56:51.716Z,77.40
2019-03-03T09:00:01.335Z,77.50
2019-03-03T09:03:12.047Z,77.60
2019-03-03T09:06:20.546Z,76.20
2019-03-03T09:09:34.566Z,76.00
2019-03-03T09:12:42.311Z,75.10
2019-03-03T09:16:05.360Z,76.00
2019-03-03T09:19:20.052Z,75.80
2019-03-03T09:22:28.357Z,74.60
2019-03-03T09:25:55.166Z,74.30
2019-03-03T09:29:05.949Z,73.20
2019-03-03T09:32:14.391Z,71.80
2019-03-03T09:35:21.278Z,71.30
2019-03-03T09:38:29.943Z,71.20
2019-03-03T09:41:37.604Z,70.80
2019-03-03T09:44:51.321Z,69.70
2019-03-03T09:48:02.966Z,69.50
2019-03-03T09:51:15.725Z,69.80
2019-03-03T09:54:23.620Z,70.10
2019-03-03T09:58:03.340Z,70.90
2019-03-03T10:01:11.588Z,69.70
2019-03-03T10:04:30.195Z,70.10
2019-03-03T10:07:41.807Z,68.00
2019-03-03T10:11:56.234Z,67.70
2019-03-03T10:15:04.031Z,66.60
2019-03-03T10:18:10.971Z,65.90
2019-03-03T10:21:26.615Z,66.10
2019-03-03T10:24:33.451Z,65.60
2019-03-03T10:27:42.267Z,64.90
2019-03-03T10:32:52.546Z,64.30
2019-03-03T10:35:59.379Z,64.20
2019-03-03T10:39:06.216Z,63.40
2019-03-03T10:42:13.068Z,61.90
2019-03-03T10:45:22.827Z,60.90
2019-03-03T10:50:35.669Z,60.10
2019-03-03T10:53:42.634Z,60.40
2019-03-03T10:56:53.300Z,61.00
2019-03-03T11:00:02.187Z,61.70
2019-03-03T11:03:09.898Z,61.30
2019-03-03T11:06:19.536Z,59.40
2019-03-03T11:09:27.219Z,60.20
2019-03-03T11:12:37.860Z,59.70
2019-03-03T11:15:50.176Z,59.80
2019-03-03T11:18:58.003Z,59.10
2019-03-03T11:22:05.796Z,59.10
2019-03-03T11:25:14.624Z,60.30
2019-03-03T11:28:23.922Z,59.10
2019-03-03T11:31:31.943Z,60.10
2019-03-03T11:34:41.730Z,59.60
2019-03-03T11:39:51.068Z,60.50
2019-03-03T11:42:57.915Z,61.00
2019-03-03T11:46:10.767Z,62.00
2019-03-03T11:49:26.576Z,62.20
2019-03-03T11:52:33.512Z,62.90
2019-03-03T11:55:41.943Z,62.80
2019-03-03T11:59:57.151Z,62.30
2019-03-03T12:03:12.497Z,62.50
2019-03-03T12:06:18.879Z,62.10
2019-03-03T12:10:31.803Z,62.50
2019-03-03T12:13:53.589Z,63.40
2019-03-03T12:17:03.332Z,63.40
2019-03-03T12:20:13.671Z,63.10
2019-03-03T12:23:23.957Z,63.00
2019-03-03T12:29:46.189Z,62.50
2019-03-03T12:33:53.019Z,61.70
2019-03-03T12:37:02.815Z,61.30
2019-03-03T12:40:11.663Z,61.50
2019-03-03T12:43:21.476Z,62.10
2019-03-03T12:46:29.238Z,61.80
2019-03-03T12:49:37.270Z,61.90
2019-03-03T12:52:44.126Z,61.20
2019-03-03T12:57:53.447Z,60.60
2019-03-03T13:01:05.431Z,61.30
2019-03-03T13:04:13.272Z,61.30
2019-03-03T13:07:20.156Z,61.60
2019-03-03T13:10:29.781Z,60.60
2019-03-03T13:13:37.414Z,61.50
2019-03-03T13:16:45.359Z,61.10
2019-03-03T13:19:53.535Z,61.20
2019-03-03T13:23:04.369Z,62.00
2019-03-03T13:26:15.171Z,62.00
2019-03-03T13:31:24.197Z,62.50
2019-03-03T13:34:38.203Z,62.50
2019-03-03T13:37:45.042Z,61.30
2019-03-03T13:42:55.914Z,61.00
2019-03-03T13:45:58.232Z,60.20
2019-03-03T13:49:00.689Z,60.70
2019-03-03T13:52:03.000Z,60.70
2019-03-03T13:55:06.240Z,60.60
2019-03-03T13:58:09.537Z,60.00
2019-03-03T14:01:12.464Z,60.00
2019-03-03T14:04:14.774Z,59.90
2019-03-03T14:07:17.329Z,59.60
2019-03-03T14:10:20.537Z,60.00
2019-03-03T14:13:22.792Z,60.00
2019-03-03T14:16:25.092Z,60.40
2019-03-03T14:19:27.350Z,59.30
2019-03-03T14:22:29.644Z,59.70
2019-03-03T14:25:32.958Z,59.90
2019-03-03T14:28:35.211Z,60.60
2019-03-03T14:31:38.034Z,60.80
2019-03-03T14:34:40.299Z,60.60
2019-03-03T14:37:43.134Z,60.60
2019-03-03T14:40:45.644Z,60.50
2019-03-03T14:43:47.899Z,59.40
2019-03-03T14:46:50.186Z,59.80
2019-03-03T14:49:52.661Z,59.00
2019-03-03T14:52:54.987Z,59.40
2019-03-03T14:55:57.235Z,59.10
2019-03-03T14:59:00.009Z,59.30
2019-03-03T15:02:02.243Z,60.30
2019-03-03T15:05:05.580Z,59.60
2019-03-03T15:08:07.860Z,59.90
2019-03-03T15:11:10.138Z,59.50
2019-03-03T15:14:12.405Z,58.50
2019-03-03T15:17:14.727Z,59.00
2019-03-03T15:20:17.808Z,58.90
2019-03-03T15:23:20.020Z,58.90
2019-03-03T15:26:22.292Z,59.10
2019-03-03T15:29:25.068Z,59.70
2019-03-03T15:32:27.303Z,58.90
2019-03-03T15:35:30.332Z,58.80
2019-03-03T15:38:32.628Z,58.40
2019-03-03T15:41:35.396Z,58.50
2019-03-03T15:44:38.546Z,58.50
2019-03-03T15:47:40.841Z,58.60
2019-03-03T15:50:43.130Z,58.90
2019-03-03T15:53:45.752Z,58.50
2019-03-03T15:56:48.622Z,58.40
2019-03-03T15:59:51.079Z,58.10
2019-03-03T16:02:53.425Z,58.30
2019-03-03T16:05:55.720Z,58.20
2019-03-03T16:08:57.978Z,58.60
2019-03-03T16:12:00.808Z,58.50
2019-03-03T16:15:04.455Z,58.20
2019-03-03T16:18:06.704Z,58.40
2019-03-03T16:21:08.934Z,58.30
2019-03-03T16:24:12.257Z,57.70
2019-03-03T16:27:14.499Z,58.00
2019-03-03T16:30:18.061Z,58.20
2019-03-03T16:33:20.972Z,57.40
2019-03-03T16:36:23.191Z,57.70
2019-03-03T16:39:25.514Z,57.90
2019-03-03T16:42:28.590Z,57.60
2019-03-03T16:45:31.214Z,57.50
2019-03-03T16:48:34.407Z,58.20
2019-03-03T16:51:36.660Z,58.40
2019-03-03T16:54:39.219Z,58.50
2019-03-03T16:57:41.463Z,58.80
2019-03-03T17:00:43.768Z,59.10
2019-03-03T17:03:46.025Z,59.20
2019-03-03T17:06:49.838Z,60.00
2019-03-03T17:09:52.050Z,59.50
2019-03-03T17:12:54.370Z,59.70
2019-03-03T17:15:58.726Z,59.90
2019-03-03T17:18:58.980Z,60.10
2019-03-03T17:22:01.259Z,60.40
2019-03-03T17:25:05.756Z,60.50
2019-03-03T17:28:08.000Z,61.20
2019-03-03T17:31:12.276Z,61.10
2019-03-03T17:34:13.357Z,61.10
2019-03-03T17:37:15.191Z,61.50
2019-03-03T17:40:18.363Z,61.60
2019-03-03T17:43:20.626Z,61.70
2019-03-03T17:46:22.890Z,62.10
2019-03-03T17:49:25.158Z,62.20
2019-03-03T17:52:27.452Z,62.60
2019-03-03T17:55:29.781Z,63.40
2019-03-03T17:58:32.068Z,62.70
2019-03-03T18:01:34.511Z,62.60
2019-03-03T18:04:36.947Z,62.80
2019-03-03T18:07:39.280Z,62.40
2019-03-03T18:10:41.567Z,62.50
2019-03-03T18:13:43.904Z,62.70
2019-03-03T18:16:46.996Z,62.80
2019-03-03T18:19:49.331Z,62.60
2019-03-03T18:22:51.575Z,63.00
2019-03-03T18:25:53.877Z,64.00
2019-03-03T18:28:56.812Z,63.60
2019-03-03T18:32:00.048Z,63.40
2019-03-03T18:35:02.366Z,64.00
2019-03-03T18:38:05.495Z,64.30
2019-03-03T18:41:08.788Z,64.40
2019-03-03T18:44:12.084Z,64.00
2019-03-03T18:47:14.352Z,64.10
2019-03-03T18:50:16.971Z,63.80
2019-03-03T18:53:19.246Z,63.40
2019-03-03T18:56:21.556Z,63.50
2019-03-03T18:59:24.422Z,63.80
2019-03-03T19:02:28.448Z,64.90
2019-03-03T19:05:31.420Z,64.20
2019-03-03T19:08:34.225Z,64.00
2019-03-03T19:11:36.851Z,64.20
2019-03-03T19:14:39.422Z,63.70
2019-03-03T19:17:42.212Z,63.80
2019-03-03T19:20:44.848Z,63.80
2019-03-03T19:23:47.264Z,64.30
2019-03-03T19:26:49.868Z,64.50
2019-03-03T19:29:52.614Z,63.80
2019-03-03T19:32:59.210Z,64.10
2019-03-03T19:36:01.403Z,63.80
2019-03-03T19:39:04.646Z,63.80
2019-03-03T19:42:07.014Z,63.40
2019-03-03T19:45:13.036Z,64.80
2019-03-03T19:48:15.312Z,65.20
2019-03-03T19:51:17.679Z,65.20
2019-03-03T19:54:19.964Z,65.80
2019-03-03T19:57:22.422Z,64.30
2019-03-03T20:00:35.106Z,65.40
2019-03-03T20:03:29.765Z,63.60
2019-03-03T20:06:32.088Z,65.20
2019-03-03T20:09:35.003Z,64.60
2019-03-03T20:12:37.272Z,64.00
2019-03-03T20:15:39.577Z,63.30
2019-03-03T20:18:41.843Z,63.00
2019-03-03T20:21:44.140Z,62.90
2019-03-03T20:24:46.445Z,63.20
2019-03-03T20:27:48.779Z,63.30
2019-03-03T20:30:51.129Z,63.30
2019-03-03T20:33:53.375Z,64.30
2019-03-03T20:36:55.613Z,65.20
2019-03-03T20:39:57.871Z,65.40
2019-03-03T20:43:00.190Z,65.00
2019-03-03T20:46:02.452Z,65.30
2019-03-03T20:49:04.711Z,64.90
2019-03-03T20:52:07.021Z,65.10
2019-03-03T20:55:10.813Z,65.20
2019-03-03T20:58:13.080Z,65.30
2019-03-03T21:01:15.851Z,65.00
2019-03-03T21:04:18.099Z,65.10
2019-03-03T21:07:20.375Z,65.70
2019-03-03T21:10:22.782Z,64.40
2019-03-03T21:13:25.107Z,64.60
2019-03-03T21:16:27.392Z,64.70
2019-03-03T21:19:29.717Z,64.60
2019-03-03T21:22:31.964Z,63.70
2019-03-03T21:25:34.307Z,63.20
2019-03-03T21:28:36.634Z,63.20
2019-03-03T21:31:38.864Z,64.10
2019-03-03T21:34:41.148Z,63.80
2019-03-03T21:37:43.436Z,64.00
2019-03-03T21:40:45.803Z,63.50
2019-03-03T21:43:48.099Z,63.40
2019-03-03T21:46:51.769Z,63.90
2019-03-03T21:49:52.577Z,64.50
2019-03-03T21:52:54.902Z,64.10
2019-03-03T21:55:57.242Z,64.60
2019-03-03T21:58:59.487Z,64.10
2019-03-03T22:02:01.824Z,64.20
2019-03-03T22:05:04.195Z,63.80
2019-03-03T22:08:06.495Z,64.60
2019-03-03T22:11:08.754Z,64.90
2019-03-03T22:14:11.053Z,64.50
2019-03-03T22:17:13.399Z,63.90
2019-03-03T22:20:15.639Z,64.70
2019-03-03T22:23:17.906Z,65.00
2019-03-03T22:26:20.150Z,64.70
2019-03-03T22:29:22.466Z,65.60
2019-03-03T22:32:24.765Z,65.40
2019-03-03T22:35:27.089Z,65.60
2019-03-03T22:38:29.355Z,65.30
2019-03-03T22:41:31.575Z,65.20
2019-03-03T22:44:33.849Z,65.60
2019-03-03T22:47:36.288Z,65.40
2019-03-03T22:50:38.577Z,64.90
2019-03-03T22:53:40.791Z,64.90
2019-03-03T22:56:43.104Z,65.20
2019-03-03T22:59:45.447Z,65.50
2019-03-03T23:02:47.688Z,66.20
2019-03-03T23:06:04.500Z,64.70
2019-03-03T23:11:17.980Z,65.30
2019-03-03T23:14:29.191Z,65.90
2019-03-03T23:17:40.562Z,66.00
2019-03-03T23:20:53.702Z,65.80
2019-03-03T23:26:02.535Z,65.90
2019-03-03T23:29:04.859Z,66.40
2019-03-03T23:32:07.150Z,66.20
2019-03-03T23:35:09.456Z,66.10
2019-03-03T23:38:11.741Z,66.50
2019-03-03T23:41:13.980Z,66.60
2019-03-03T23:44:16.715Z,66.30
2019-03-03T23:47:19.003Z,66.50
2019-03-03T23:50:21.256Z,66.30
2019-03-03T23:53:24.250Z,66.80
2019-03-03T23:56:26.499Z,66.90
2019-03-03T23:59:28.807Z,66.60
